createdAt,value
2022-11-06T00:00:33.162Z,95592.50
2022-11-06T00:03:01.802Z,95592.94
2022-11-06T00:05:47.815Z,95592.97
2022-11-06T00:08:16.237Z,95591.53
2022-11-06T00:10:44.229Z,95587.00
2022-11-06T00:13:13.379Z,95584.69
2022-11-06T00:15:41.167Z,95591.75
2022-11-06T00:18:08.912Z,95589.78
2022-11-06T00:20:37.813Z,95598.69
2022-11-06T00:23:05.630Z,95587.53
2022-11-06T00:25:33.525Z,95584.97
2022-11-06T00:28:01.322Z,95589.81
2022-11-06T00:30:30.424Z,95571.25
2022-11-06T00:32:59.403Z,95566.91
2022-11-06T00:35:27.199Z,95569.63
2022-11-06T00:37:56.072Z,95571.66
2022-11-06T00:40:24.026Z,95569.19
2022-11-06T00:42:56.199Z,95574.66
2022-11-06T00:45:24.376Z,95572.84
2022-11-06T00:47:53.643Z,95571.13
2022-11-06T00:50:21.414Z,95570.31
2022-11-06T00:52:49.201Z,95572.47
2022-11-06T00:55:17.188Z,95571.84
2022-11-06T00:57:45.096Z,95575.03
2022-11-06T01:00:14.319Z,95571.88
2022-11-06T01:02:42.307Z,95569.41
2022-11-06T01:05:11.716Z,95572.03
2022-11-06T01:07:40.103Z,95567.31
2022-11-06T01:10:08.927Z,95566.38
2022-11-06T01:12:36.803Z,95567.31
2022-11-06T01:15:05.303Z,95571.38
2022-11-06T01:17:33.154Z,95556.06
2022-11-06T01:20:01.016Z,95557.97
2022-11-06T01:22:30.195Z,95557.97
2022-11-06T01:24:58.129Z,95556.13
2022-11-06T01:27:27.303Z,95548.47
2022-11-06T01:29:55.676Z,95547.88
2022-11-06T01:32:23.611Z,95549.09
2022-11-06T01:34:51.552Z,95539.25
2022-11-06T01:37:19.637Z,95539.75
2022-11-06T01:39:50.593Z,95535.03
2022-11-06T01:42:21.204Z,95531.47
2022-11-06T01:45:26.984Z,95537.09
2022-11-06T01:47:54.923Z,95527.19
2022-11-06T01:50:23.282Z,95525.41
2022-11-06T01:52:52.734Z,95517.59
2022-11-06T01:55:26.079Z,95514.88
2022-11-06T01:57:56.060Z,95515.28
2022-11-06T02:00:23.972Z,95515.44
2022-11-06T02:02:52.453Z,95523.59
2022-11-06T02:05:20.663Z,95521.84
2022-11-06T02:07:49.381Z,95523.22
2022-11-06T02:10:17.776Z,95524.69
2022-11-06T02:13:04.615Z,95522.47
2022-11-06T02:15:40.972Z,95521.94
2022-11-06T02:18:30.211Z,95521.88
2022-11-06T02:21:20.630Z,95523.63
2022-11-06T02:24:04.580Z,95521.41
2022-11-06T02:26:57.678Z,95519.13
2022-11-06T02:29:32.663Z,95513.13
2022-11-06T02:32:05.279Z,95509.75
2022-11-06T02:34:34.996Z,95513.94
2022-11-06T02:37:07.951Z,95510.69
2022-11-06T02:39:40.683Z,95498.25
2022-11-06T02:42:12.776Z,95506.53
2022-11-06T02:44:41.683Z,95495.00
2022-11-06T02:47:12.352Z,95497.06
2022-11-06T02:49:44.943Z,95495.47
2022-11-06T02:52:15.190Z,95487.94
2022-11-06T02:54:48.742Z,95490.50
2022-11-06T02:57:21.070Z,95493.19
2022-11-06T02:59:53.425Z,95487.41
2022-11-06T03:02:26.032Z,95500.72
2022-11-06T03:04:59.656Z,95495.13
2022-11-06T03:07:35.646Z,95499.25
2022-11-06T03:10:03.916Z,95489.94
2022-11-06T03:12:39.719Z,95499.34
2022-11-06T03:15:15.828Z,95495.66
2022-11-06T03:17:48.466Z,95500.06
2022-11-06T03:20:22.520Z,95484.38
2022-11-06T03:22:57.376Z,95485.59
2022-11-06T03:25:29.353Z,95498.50
2022-11-06T03:28:05.240Z,95495.31
2022-11-06T03:30:37.638Z,95500.22
2022-11-06T03:33:11.748Z,95499.31
2022-11-06T03:35:45.312Z,95497.31
2022-11-06T03:38:19.450Z,95497.59
2022-11-06T03:40:52.621Z,95505.28
2022-11-06T03:43:26.802Z,95500.63
2022-11-06T03:45:57.137Z,95501.97
2022-11-06T03:48:31.943Z,95499.69
2022-11-06T03:51:05.510Z,95497.84
2022-11-06T03:53:40.475Z,95497.19
2022-11-06T03:56:14.827Z,95491.47
2022-11-06T03:58:46.843Z,95497.44
2022-11-06T04:01:19.512Z,95496.50
2022-11-06T04:03:53.246Z,95490.25
2022-11-06T04:06:27.288Z,95496.50
2022-11-06T04:09:18.320Z,95495.03
2022-11-06T04:12:05.573Z,95490.25
2022-11-06T04:14:37.885Z,95483.16
2022-11-06T04:17:11.320Z,95481.69
2022-11-06T04:19:43.637Z,95478.75
2022-11-06T04:22:32.979Z,95478.13
2022-11-06T04:25:29.026Z,95487.84
2022-11-06T04:28:10.029Z,95486.25
2022-11-06T04:30:45.616Z,95482.78
2022-11-06T04:33:19.898Z,95476.34
2022-11-06T04:35:55.439Z,95469.34
2022-11-06T04:38:32.599Z,95472.00
2022-11-06T04:41:12.687Z,95466.41
2022-11-06T04:43:45.797Z,95466.94
2022-11-06T04:46:20.955Z,95460.72
2022-11-06T04:48:50.280Z,95462.44
2022-11-06T04:51:22.301Z,95466.44
2022-11-06T04:53:52.370Z,95458.84
2022-11-06T04:56:29.276Z,95457.78
2022-11-06T04:58:57.556Z,95455.66
2022-11-06T05:01:27.327Z,95456.56
2022-11-06T05:03:55.290Z,95451.63
2022-11-06T05:06:28.669Z,95461.13
2022-11-06T05:08:59.058Z,95464.72
2022-11-06T05:11:26.863Z,95462.69
2022-11-06T05:13:54.687Z,95468.56
2022-11-06T05:16:22.721Z,95457.38
2022-11-06T05:18:51.946Z,95450.47
2022-11-06T05:21:37.026Z,95447.53
2022-11-06T05:24:05.659Z,95435.28
2022-11-06T05:26:34.284Z,95437.97
2022-11-06T05:29:02.439Z,95434.25
2022-11-06T05:31:30.354Z,95434.63
2022-11-06T05:33:59.667Z,95437.03
2022-11-06T05:36:27.535Z,95439.41
2022-11-06T05:38:56.218Z,95437.28
2022-11-06T05:41:24.028Z,95436.75
2022-11-06T05:43:52.024Z,95446.59
2022-11-06T05:46:42.786Z,95435.56
2022-11-06T05:49:10.455Z,95434.09
2022-11-06T05:51:38.265Z,95433.56
2022-11-06T05:54:06.179Z,95433.97
2022-11-06T05:56:34.053Z,95428.38
2022-11-06T05:59:01.946Z,95417.44
2022-11-06T06:01:29.881Z,95417.31
2022-11-06T06:03:57.742Z,95410.00
2022-11-06T06:06:27.477Z,95409.06
2022-11-06T06:08:55.365Z,95406.13
2022-11-06T06:11:23.261Z,95407.75
2022-11-06T06:13:51.163Z,95406.94
2022-11-06T06:16:19.060Z,95406.00
2022-11-06T06:18:49.423Z,95416.25
2022-11-06T06:21:17.563Z,95403.22
2022-11-06T06:23:46.996Z,95404.94
2022-11-06T06:26:14.913Z,95402.09
2022-11-06T06:28:42.694Z,95396.38
2022-11-06T06:31:11.722Z,95380.31
2022-11-06T06:33:39.525Z,95383.69
2022-11-06T06:36:08.273Z,95386.72
2022-11-06T06:38:36.079Z,95386.44
2022-11-06T06:41:06.738Z,95377.91
2022-11-06T06:43:34.920Z,95374.97
2022-11-06T06:46:03.863Z,95380.03
2022-11-06T06:48:33.322Z,95386.19
2022-11-06T06:51:02.342Z,95385.63
2022-11-06T06:53:30.816Z,95374.47
2022-11-06T06:56:00.516Z,95367.16
2022-11-06T06:58:30.414Z,95374.31
2022-11-06T07:01:01.138Z,95373.84
2022-11-06T07:03:29.181Z,95372.69
2022-11-06T07:05:58.717Z,95371.78
2022-11-06T07:08:27.260Z,95371.44
2022-11-06T07:10:59.925Z,95375.44
2022-11-06T07:13:35.596Z,95386.09
2022-11-06T07:16:05.148Z,95391.84
2022-11-06T07:18:33.364Z,95388.22
2022-11-06T07:21:01.251Z,95384.88
2022-11-06T07:23:29.083Z,95388.97
2022-11-06T07:25:57.008Z,95390.84
2022-11-06T07:28:24.807Z,95402.41
2022-11-06T07:30:54.208Z,95406.91
2022-11-06T07:33:21.990Z,95394.41
2022-11-06T07:35:49.827Z,95392.81
2022-11-06T07:38:17.673Z,95399.38
2022-11-06T07:40:46.776Z,95407.31
2022-11-06T07:43:18.050Z,95411.47
2022-11-06T07:45:45.977Z,95401.28
2022-11-06T07:48:15.395Z,95401.94
2022-11-06T07:50:43.294Z,95400.84
2022-11-06T07:53:11.441Z,95406.25
2022-11-06T07:55:42.403Z,95392.91
2022-11-06T07:58:10.574Z,95391.44
2022-11-06T08:00:38.656Z,95378.56
2022-11-06T08:03:06.592Z,95384.47
2022-11-06T08:05:35.762Z,95382.22
2022-11-06T08:08:03.700Z,95379.72
2022-11-06T08:10:31.633Z,95364.72
2022-11-06T08:13:00.648Z,95356.59
2022-11-06T08:15:28.594Z,95347.63
2022-11-06T08:17:56.377Z,95352.19
2022-11-06T08:20:24.152Z,95348.09
2022-11-06T08:22:53.322Z,95351.19
2022-11-06T08:25:21.137Z,95349.13
2022-11-06T08:27:48.977Z,95343.41
2022-11-06T08:30:16.833Z,95349.25
2022-11-06T08:32:44.991Z,95337.72
2022-11-06T08:35:12.787Z,95345.97
2022-11-06T08:37:41.052Z,95336.38
2022-11-06T08:40:11.729Z,95343.78
2022-11-06T08:42:39.599Z,95336.06
2022-11-06T08:45:08.365Z,95339.25
2022-11-06T08:47:36.183Z,95343.44
2022-11-06T08:50:04.220Z,95346.34
2022-11-06T08:52:34.206Z,95345.75
2022-11-06T08:55:02.313Z,95355.31
2022-11-06T08:57:31.502Z,95349.34
2022-11-06T08:59:59.391Z,95331.31
2022-11-06T09:02:28.496Z,95325.53
2022-11-06T09:04:56.409Z,95327.94
2022-11-06T09:07:24.232Z,95334.00
2022-11-06T09:09:52.067Z,95324.91
2022-11-06T09:12:19.981Z,95324.13
2022-11-06T09:14:49.218Z,95303.41
2022-11-06T09:17:17.336Z,95298.53
2022-11-06T09:19:45.236Z,95292.09
2022-11-06T09:22:13.121Z,95294.22
2022-11-06T09:25:01.794Z,95293.63
2022-11-06T09:27:29.017Z,95285.91
2022-11-06T09:29:58.379Z,95279.31
2022-11-06T09:32:26.201Z,95269.59
2022-11-06T09:34:54.064Z,95266.63
2022-11-06T09:37:22.006Z,95261.44
2022-11-06T09:39:49.897Z,95260.91
2022-11-06T09:42:29.156Z,95255.19
2022-11-06T09:45:08.718Z,95253.13
2022-11-06T09:47:42.562Z,95245.88
2022-11-06T09:50:18.383Z,95239.81
2022-11-06T09:52:50.225Z,95241.28
2022-11-06T09:55:22.379Z,95244.94
2022-11-06T09:57:55.905Z,95239.97
2022-11-06T10:00:25.192Z,95238.22
2022-11-06T10:02:56.368Z,95243.44
2022-11-06T10:05:29.743Z,95243.38
2022-11-06T10:07:59.373Z,95229.63
2022-11-06T10:10:36.256Z,95218.09
2022-11-06T10:13:27.606Z,95211.75
2022-11-06T10:16:03.992Z,95210.78
2022-11-06T10:18:43.455Z,95194.41
2022-11-06T10:21:14.364Z,95186.88
2022-11-06T10:23:48.808Z,95184.56
2022-11-06T10:26:19.533Z,95172.50
2022-11-06T10:29:08.588Z,95179.16
2022-11-06T10:31:47.149Z,95177.28
2022-11-06T10:34:19.024Z,95170.94
2022-11-06T10:36:51.993Z,95169.22
2022-11-06T10:39:23.592Z,95163.97
2022-11-06T10:41:55.910Z,95144.38
2022-11-06T10:44:28.292Z,95146.16
2022-11-06T10:47:04.945Z,95131.34
2022-11-06T10:49:41.146Z,95132.09
2022-11-06T10:52:36.412Z,95134.28
2022-11-06T10:55:22.515Z,95129.84
2022-11-06T10:57:57.320Z,95128.06
2022-11-06T11:00:25.582Z,95116.53
2022-11-06T11:02:58.835Z,95118.91
2022-11-06T11:05:28.792Z,95103.53
2022-11-06T11:07:56.889Z,95104.56
2022-11-06T11:10:30.993Z,95083.88
2022-11-06T11:13:04.123Z,95080.72
2022-11-06T11:15:44.776Z,95076.97
2022-11-06T11:18:24.579Z,95071.91
2022-11-06T11:21:04.972Z,95066.38
2022-11-06T11:23:33.008Z,95063.22
2022-11-06T11:26:20.367Z,95060.66
2022-11-06T11:28:53.660Z,95061.84
2022-11-06T11:31:28.358Z,95069.34
2022-11-06T11:34:00.692Z,95068.34
2022-11-06T11:36:48.926Z,95067.78
2022-11-06T11:39:19.354Z,95057.09
2022-11-06T11:41:47.285Z,95059.47
2022-11-06T11:44:17.514Z,95052.38
2022-11-06T11:46:51.315Z,95059.09
2022-11-06T11:49:30.903Z,95043.84
2022-11-06T11:52:00.898Z,95044.28
2022-11-06T11:54:32.639Z,95041.47
2022-11-06T11:57:06.599Z,95033.91
2022-11-06T11:59:39.505Z,95026.88
2022-11-06T12:02:15.994Z,95027.72
2022-11-06T12:04:50.596Z,95022.41
2022-11-06T12:07:27.245Z,95028.06
2022-11-06T12:09:55.399Z,95023.69
2022-11-06T12:12:26.098Z,95019.69
2022-11-06T12:15:18.783Z,95012.16
2022-11-06T12:17:52.448Z,95015.53
2022-11-06T12:20:27.292Z,95015.00
2022-11-06T12:22:59.078Z,94985.25
2022-11-06T12:25:32.497Z,95010.13
2022-11-06T12:28:03.403Z,95017.44
2022-11-06T12:30:34.120Z,95010.91
2022-11-06T12:33:07.431Z,95016.72
2022-11-06T12:35:42.638Z,95010.31
2022-11-06T12:38:20.469Z,95003.78
2022-11-06T12:40:52.965Z,95007.53
2022-11-06T12:43:28.414Z,94998.94
2022-11-06T12:46:10.474Z,94997.03
2022-11-06T12:48:59.901Z,95003.81
2022-11-06T12:51:37.922Z,95010.53
2022-11-06T12:54:09.334Z,94979.03
2022-11-06T12:56:48.743Z,95007.56
2022-11-06T12:59:42.577Z,95009.28
2022-11-06T13:02:25.814Z,95013.09
2022-11-06T13:05:00.422Z,95015.97
2022-11-06T13:08:10.253Z,95023.28
2022-11-06T13:10:45.943Z,95014.41
2022-11-06T13:13:36.079Z,95007.59
2022-11-06T13:16:15.268Z,94981.75
2022-11-06T13:18:52.973Z,94978.41
2022-11-06T13:21:26.671Z,94966.91
2022-11-06T13:23:59.919Z,94960.88
2022-11-06T13:26:36.262Z,94937.56
2022-11-06T13:29:07.103Z,94961.81
2022-11-06T13:31:39.794Z,94953.44
2022-11-06T13:34:12.149Z,94941.19
2022-11-06T13:36:40.165Z,94933.88
2022-11-06T13:39:18.018Z,94932.69
2022-11-06T13:41:45.752Z,94925.78
2022-11-06T13:44:16.185Z,94921.50
2022-11-06T13:46:55.668Z,94915.44
2022-11-06T13:49:31.395Z,94908.09
2022-11-06T13:52:02.124Z,94902.63
2022-11-06T13:54:42.527Z,94895.19
2022-11-06T13:57:46.962Z,94885.25
2022-11-06T14:00:22.579Z,94880.47
2022-11-06T14:03:29.114Z,94883.66
2022-11-06T14:06:01.934Z,94892.81
2022-11-06T14:08:33.194Z,94900.69
2022-11-06T14:11:06.536Z,94899.00
2022-11-06T14:13:36.893Z,94900.78
2022-11-06T14:16:08.212Z,94896.78
2022-11-06T14:18:36.846Z,94892.72
2022-11-06T14:21:50.568Z,94899.44
2022-11-06T14:24:40.113Z,94906.41
2022-11-06T14:27:13.399Z,94898.53
2022-11-06T14:30:00.377Z,94904.13
2022-11-06T14:32:49.195Z,94905.84
2022-11-06T14:35:50.865Z,94895.34
2022-11-06T14:38:38.458Z,94906.34
2022-11-06T14:41:51.356Z,94904.13
2022-11-06T14:44:27.954Z,94898.63
2022-11-06T14:46:59.468Z,94899.28
2022-11-06T14:49:34.865Z,94907.63
2022-11-06T14:52:05.962Z,94895.59
2022-11-06T14:54:36.631Z,94902.13
2022-11-06T14:57:05.172Z,94888.31
2022-11-06T14:59:37.891Z,94893.84
2022-11-06T15:02:18.301Z,94892.41
2022-11-06T15:04:50.900Z,94875.28
2022-11-06T15:08:03.121Z,94878.41
2022-11-06T15:10:48.691Z,94871.28
2022-11-06T15:13:25.737Z,94859.28
2022-11-06T15:16:01.712Z,94872.84
2022-11-06T15:18:32.834Z,94863.34
2022-11-06T15:21:04.707Z,94857.41
2022-11-06T15:23:38.132Z,94854.25
2022-11-06T15:26:14.691Z,94863.84
2022-11-06T15:28:47.823Z,94866.78
2022-11-06T15:31:20.001Z,94854.56
2022-11-06T15:33:56.233Z,94864.75
2022-11-06T15:36:24.980Z,94869.44
2022-11-06T15:38:52.855Z,94858.16
2022-11-06T15:41:24.268Z,94863.25
2022-11-06T15:43:55.683Z,94856.94
2022-11-06T15:46:27.296Z,94863.03
2022-11-06T15:49:09.686Z,94868.47
2022-11-06T15:51:40.851Z,94860.78
2022-11-06T15:54:14.344Z,94860.31
2022-11-06T15:56:42.729Z,94853.91
2022-11-06T15:59:13.641Z,94852.66
2022-11-06T16:01:49.903Z,94851.16
2022-11-06T16:04:21.583Z,94854.63
2022-11-06T16:06:50.893Z,94854.34
2022-11-06T16:09:21.442Z,94859.31
2022-11-06T16:11:52.431Z,94866.66
2022-11-06T16:14:21.034Z,94868.16
2022-11-06T16:16:52.427Z,94865.72
2022-11-06T16:19:29.600Z,94864.25
2022-11-06T16:22:02.192Z,94861.91
2022-11-06T16:24:33.874Z,94869.84
2022-11-06T16:27:06.990Z,94862.28
2022-11-06T16:29:35.636Z,94864.22
2022-11-06T16:32:08.158Z,94868.69
2022-11-06T16:34:41.904Z,94870.63
2022-11-06T16:37:38.098Z,94866.88
2022-11-06T16:40:23.078Z,94873.81
2022-11-06T16:43:03.419Z,94872.78
2022-11-06T16:45:31.696Z,94873.91
2022-11-06T16:48:26.093Z,94878.91
2022-11-06T16:50:56.476Z,94878.91
2022-11-06T16:53:27.329Z,94876.38
2022-11-06T16:55:57.297Z,94881.81
2022-11-06T16:58:26.099Z,94887.53
2022-11-06T17:00:59.575Z,94881.28
2022-11-06T17:03:34.208Z,94891.03
2022-11-06T17:06:02.281Z,94884.69
2022-11-06T17:08:37.593Z,94881.81
2022-11-06T17:11:26.045Z,94893.66
2022-11-06T17:13:53.905Z,94892.16
2022-11-06T17:16:23.635Z,94897.19
2022-11-06T17:18:53.707Z,94899.00
2022-11-06T17:21:23.907Z,94900.25
2022-11-06T17:23:53.565Z,94903.84
2022-11-06T17:26:25.445Z,94896.09
2022-11-06T17:28:53.773Z,94892.16
2022-11-06T17:31:23.875Z,94892.59
2022-11-06T17:33:53.798Z,94887.59
2022-11-06T17:36:25.035Z,94877.00
2022-11-06T17:38:53.744Z,94884.25
2022-11-06T17:41:30.610Z,94913.44
2022-11-06T17:43:58.856Z,94907.25
2022-11-06T17:46:28.224Z,94904.31
2022-11-06T17:48:58.019Z,94903.59
2022-11-06T17:51:52.312Z,94906.25
2022-11-06T17:54:21.759Z,94899.78
2022-11-06T17:56:51.336Z,94891.03
2022-11-06T17:59:19.873Z,94901.13
2022-11-06T18:01:50.458Z,94906.84
2022-11-06T18:04:20.668Z,94901.47
2022-11-06T18:06:49.822Z,94903.84
2022-11-06T18:09:17.962Z,94898.03
2022-11-06T18:11:50.850Z,94894.38
2022-11-06T18:14:19.439Z,94906.31
2022-11-06T18:16:48.241Z,94920.97
2022-11-06T18:19:18.081Z,94919.91
2022-11-06T18:21:47.361Z,94919.91
2022-11-06T18:24:15.791Z,94919.13
2022-11-06T18:26:43.567Z,94912.09
2022-11-06T18:29:12.696Z,94910.97
2022-11-06T18:31:40.770Z,94914.75
2022-11-06T18:34:09.033Z,94916.16
2022-11-06T18:36:37.099Z,94920.28
2022-11-06T18:39:06.814Z,94913.53
2022-11-06T18:41:35.664Z,94913.34
2022-11-06T18:44:04.001Z,94916.25
2022-11-06T18:46:31.922Z,94906.84
2022-11-06T18:49:00.133Z,94929.50
2022-11-06T18:51:34.999Z,94923.78
2022-11-06T18:54:07.867Z,94927.41
2022-11-06T18:56:37.330Z,94926.59
2022-11-06T18:59:06.636Z,94924.69
2022-11-06T19:01:35.827Z,94922.91
2022-11-06T19:04:04.791Z,94929.59
2022-11-06T19:06:33.202Z,94929.06
2022-11-06T19:09:00.990Z,94918.63
2022-11-06T19:11:30.248Z,94929.78
2022-11-06T19:13:58.131Z,94942.44
2022-11-06T19:16:26.216Z,94934.78
2022-11-06T19:21:29.894Z,94936.00
2022-11-06T19:24:03.472Z,94935.81
2022-11-06T19:26:35.366Z,94948.22
2022-11-06T19:29:03.671Z,94939.25
2022-11-06T19:31:33.982Z,94942.41
2022-11-06T19:34:02.966Z,94938.09
2022-11-06T19:36:31.562Z,94938.81
2022-11-06T19:38:59.959Z,94944.50
2022-11-06T19:41:53.757Z,94950.47
2022-11-06T19:44:21.984Z,94952.66
2022-11-06T19:46:49.870Z,94949.16
2022-11-06T19:49:18.214Z,94946.06
2022-11-06T19:51:46.039Z,94951.00
2022-11-06T19:54:13.884Z,94957.94
2022-11-06T19:57:29.254Z,94960.66
2022-11-06T19:59:31.008Z,94956.88
2022-11-06T20:01:58.961Z,94950.38
2022-11-06T20:04:26.913Z,94965.50
2022-11-06T20:06:54.852Z,94963.81
2022-11-06T20:09:22.779Z,94964.84
2022-11-06T20:11:52.429Z,94975.75
2022-11-06T20:14:21.747Z,94979.97
2022-11-06T20:16:51.258Z,94982.38
2022-11-06T20:19:19.403Z,94984.41
2022-11-06T20:21:47.331Z,94989.06
2022-11-06T20:24:15.474Z,95002.53
2022-11-06T20:26:43.459Z,95011.53
2022-11-06T20:29:11.472Z,95010.63
2022-11-06T20:31:39.290Z,95018.53
2022-11-06T20:34:08.494Z,95018.75
2022-11-06T20:36:36.604Z,95020.03
2022-11-06T20:39:05.255Z,95028.25
2022-11-06T20:41:33.123Z,95021.50
2022-11-06T20:44:01.025Z,95023.16
2022-11-06T20:46:28.923Z,95032.88
2022-11-06T20:48:57.818Z,95031.94
2022-11-06T20:51:29.316Z,95037.94
2022-11-06T20:53:57.270Z,95044.31
2022-11-06T20:56:26.154Z,95043.78
2022-11-06T20:58:54.672Z,95040.22
2022-11-06T21:01:24.809Z,95053.66
2022-11-06T21:03:53.519Z,95045.84
2022-11-06T21:06:24.224Z,95064.53
2022-11-06T21:08:53.976Z,95060.22
2022-11-06T21:11:23.865Z,95057.66
2022-11-06T21:13:54.402Z,95060.22
2022-11-06T21:16:24.549Z,95064.38
2022-11-06T21:18:53.203Z,95068.09
2022-11-06T21:21:22.828Z,95066.53
2022-11-06T21:23:52.008Z,95083.31
2022-11-06T21:26:23.047Z,95077.63
2022-11-06T21:28:51.293Z,95080.03
2022-11-06T21:31:24.089Z,95081.59
2022-11-06T21:33:53.524Z,95077.25
2022-11-06T21:36:25.166Z,95078.69
2022-11-06T21:38:54.212Z,95083.44
2022-11-06T21:41:25.654Z,95094.34
2022-11-06T21:43:53.830Z,95085.53
2022-11-06T21:46:22.069Z,95096.16
2022-11-06T21:48:50.728Z,95101.31
2022-11-06T21:51:22.718Z,95107.44
2022-11-06T21:54:11.394Z,95113.16
2022-11-06T21:56:42.025Z,95106.06
2022-11-06T21:59:13.591Z,95108.63
2022-11-06T22:01:42.225Z,95118.47
2022-11-06T22:04:11.472Z,95108.41
2022-11-06T22:06:41.357Z,95120.03
2022-11-06T22:09:10.005Z,95125.38
2022-11-06T22:11:40.849Z,95126.16
2022-11-06T22:14:12.238Z,95130.28
2022-11-06T22:16:42.158Z,95128.94
2022-11-06T22:19:11.209Z,95133.47
2022-11-06T22:21:41.094Z,95137.59
2022-11-06T22:24:09.740Z,95132.84
2022-11-06T22:26:37.814Z,95134.03
2022-11-06T22:29:10.275Z,95135.41
2022-11-06T22:31:38.344Z,95132.47
2022-11-06T22:34:06.281Z,95140.34
2022-11-06T22:36:34.141Z,95144.06
2022-11-06T22:39:06.171Z,95147.44
2022-11-06T22:41:33.952Z,95131.84
2022-11-06T22:44:02.389Z,95132.81
2022-11-06T22:46:32.001Z,95136.38
2022-11-06T22:48:59.878Z,95140.50
2022-11-06T22:51:29.140Z,95139.91
2022-11-06T22:53:57.384Z,95137.16
2022-11-06T22:56:26.639Z,95130.00
2022-11-06T22:58:55.308Z,95141.47
2022-11-06T23:01:24.192Z,95134.94
2022-11-06T23:03:56.583Z,95136.63
2022-11-06T23:06:25.157Z,95136.44
2022-11-06T23:08:53.247Z,95140.56
2022-11-06T23:11:23.652Z,95141.59
2022-11-06T23:13:51.918Z,95133.88
2022-11-06T23:16:43.532Z,95143.75
2022-11-06T23:19:14.883Z,95151.06
2022-11-06T23:21:43.641Z,95143.75
2022-11-06T23:24:12.064Z,95149.28
2022-11-06T23:26:41.384Z,95150.78
2022-11-06T23:29:09.385Z,95148.88
2022-11-06T23:31:37.190Z,95150.06
2022-11-06T23:34:04.993Z,95158.72
2022-11-06T23:36:35.259Z,95154.78
2022-11-06T23:39:03.073Z,95156.38
2022-11-06T23:41:46.602Z,95157.56
2022-11-06T23:44:32.300Z,95160.59
2022-11-06T23:47:00.397Z,95163.03
2022-11-06T23:49:28.317Z,95162.25
2022-11-06T23:51:57.447Z,95162.84
2022-11-06T23:54:26.366Z,95160.97
2022-11-06T23:56:54.322Z,95157.91
2022-11-06T23:59:22.322Z,95165.75
